Time;durP1;ratioP1;P1;durP2;ratioP2;P2;SDS_P1;SDS_P2;PMS_P1;PMS_P2;Temp;Humidity;BMP_temperature;BMP_pressure;BME280_temperature;BME280_humidity;BME280_pressure;Samples;Min_cycle;Max_cycle;Signal;HPM_P1;HPM_P2
2023/07/26 00:00:44;;;;;;;1.87;1.22;;;17.70;70.10;;;;;;963076;146;27399;-75
2023/07/26 00:03:11;;;;;;;1.52;1.45;;;17.60;70.00;;;;;;963816;146;27310;-75
2023/07/26 00:05:38;;;;;;;1.62;1.50;;;17.60;70.20;;;;;;963306;146;27363;-74
2023/07/26 00:08:04;;;;;;;1.50;1.30;;;17.60;70.50;;;;;;962912;146;27377;-75
2023/07/26 00:10:31;;;;;;;2.22;1.40;;;17.60;70.50;;;;;;962908;146;27440;-75
2023/07/26 00:12:57;;;;;;;2.55;1.50;;;17.60;70.60;;;;;;963397;146;27431;-75
2023/07/26 00:15:24;;;;;;;2.20;1.40;;;17.60;70.70;;;;;;962871;146;27899;-75
2023/07/26 00:17:51;;;;;;;1.50;1.37;;;17.60;70.80;;;;;;963157;146;27421;-75
2023/07/26 00:20:17;;;;;;;1.37;1.30;;;17.50;70.80;;;;;;963120;146;27463;-75
2023/07/26 00:22:44;;;;;;;3.50;1.20;;;17.50;71.10;;;;;;963250;146;27343;-75
2023/07/26 00:25:10;;;;;;;2.30;1.50;;;17.50;71.30;;;;;;963693;146;27298;-75
2023/07/26 00:27:37;;;;;;;1.50;1.40;;;17.50;71.60;;;;;;963470;146;27423;-75
2023/07/26 00:30:04;;;;;;;1.40;1.30;;;17.50;71.70;;;;;;963581;146;27390;-75
2023/07/26 00:32:30;;;;;;;1.55;1.42;;;17.50;71.70;;;;;;963144;146;27346;-75
2023/07/26 00:34:57;;;;;;;2.90;1.70;;;17.50;71.60;;;;;;963730;146;27346;-75
2023/07/26 00:37:23;;;;;;;1.60;1.32;;;17.50;71.60;;;;;;963090;146;27334;-75
2023/07/26 00:39:50;;;;;;;1.62;1.52;;;17.50;71.70;;;;;;963619;146;27675;-75
2023/07/26 00:42:18;;;;;;;1.70;1.52;;;17.50;71.70;;;;;;962700;146;27360;-75
2023/07/26 00:44:43;;;;;;;1.95;1.57;;;17.50;71.90;;;;;;962989;146;27787;-75
2023/07/26 00:47:10;;;;;;;2.20;1.45;;;17.50;72.00;;;;;;962638;146;27335;-75
2023/07/26 00:49:36;;;;;;;3.42;1.60;;;17.50;72.10;;;;;;963521;146;27730;-75
2023/07/26 00:52:03;;;;;;;2.00;1.80;;;17.50;72.30;;;;;;963573;146;27407;-75
2023/07/26 00:54:29;;;;;;;1.60;1.50;;;17.50;72.50;;;;;;963107;146;27428;-75
2023/07/26 00:56:56;;;;;;;2.17;1.50;;;17.50;72.50;;;;;;945963;148;27374;-75
2023/07/26 00:59:23;;;;;;;2.50;1.70;;;17.50;72.70;;;;;;962724;146;27416;-75
2023/07/26 01:01:49;;;;;;;2.67;1.50;;;17.50;72.70;;;;;;963293;146;27387;-75
2023/07/26 01:04:16;;;;;;;1.20;1.20;;;17.40;72.70;;;;;;945477;148;27361;-75
2023/07/26 01:07:01;;;;;;;2.05;1.47;;;17.40;72.80;;;;;;962836;146;27780;-75
2023/07/26 01:09:48;;;;;;;1.57;1.47;;;17.40;72.90;;;;;;945115;148;27331;-75
2023/07/26 01:12:24;;;;;;;2.08;1.67;;;17.30;72.80;;;;;;940971;148;27804;-75
2023/07/26 01:15:03;;;;;;;1.82;1.42;;;17.30;73.10;;;;;;962698;146;27380;-75
2023/07/26 01:17:29;;;;;;;1.57;1.47;;;17.30;73.20;;;;;;962870;146;27739;-75
2023/07/26 01:19:56;;;;;;;1.90;1.80;;;17.30;73.30;;;;;;957653;146;27376;-75
2023/07/26 01:22:22;;;;;;;2.02;1.67;;;17.20;73.40;;;;;;949286;147;27316;-75
2023/07/26 01:24:49;;;;;;;2.12;1.75;;;17.20;73.60;;;;;;925997;150;27435;-75
2023/07/26 01:27:15;;;;;;;1.80;1.70;;;17.20;73.60;;;;;;950433;147;27311;-75
2023/07/26 01:29:42;;;;;;;1.70;1.60;;;17.20;73.70;;;;;;932798;150;27363;-74
2023/07/26 01:32:09;;;;;;;1.85;1.75;;;17.10;73.60;;;;;;949686;147;27416;-75
2023/07/26 01:34:35;;;;;;;1.98;1.75;;;17.10;73.70;;;;;;950146;147;27360;-75
2023/07/26 01:37:02;;;;;;;1.62;1.52;;;17.10;73.80;;;;;;933405;150;27394;-75
2023/07/26 01:39:29;;;;;;;1.70;1.60;;;17.10;73.90;;;;;;949693;147;27695;-75
2023/07/26 01:41:55;;;;;;;2.10;1.70;;;17.10;73.80;;;;;;933467;150;27467;-75
2023/07/26 01:44:22;;;;;;;1.70;1.47;;;17.10;74.00;;;;;;949381;147;27317;-75
2023/07/26 01:46:52;;;;;;;2.12;1.60;;;17.10;74.00;;;;;;950031;147;27324;-75
2023/07/26 01:49:16;;;;;;;2.08;1.65;;;17.10;74.20;;;;;;948441;146;27438;-75
2023/07/26 01:51:42;;;;;;;1.62;1.52;;;17.00;74.20;;;;;;935308;150;27511;-75
2023/07/26 01:54:08;;;;;;;2.92;1.92;;;17.00;74.30;;;;;;935648;149;27304;-75
2023/07/26 01:56:35;;;;;;;2.22;1.77;;;17.00;74.40;;;;;;936900;149;27337;-75
2023/07/26 01:59:01;;;;;;;2.33;1.70;;;16.90;74.60;;;;;;935355;149;27436;-75
2023/07/26 02:01:28;;;;;;;2.67;1.85;;;16.90;74.90;;;;;;948635;148;27367;-75
2023/07/26 02:03:54;;;;;;;2.30;1.77;;;16.90;75.00;;;;;;948503;148;27372;-75
2023/07/26 02:06:21;;;;;;;1.80;1.70;;;16.90;75.30;;;;;;948600;148;27332;-75
2023/07/26 02:08:48;;;;;;;2.23;1.80;;;16.80;75.50;;;;;;948618;148;27339;-75
2023/07/26 02:11:14;;;;;;;4.50;1.87;;;16.80;75.70;;;;;;948894;148;27445;-75
2023/07/26 02:13:41;;;;;;;3.37;1.67;;;16.80;75.90;;;;;;948890;148;27457;-75
2023/07/26 02:16:07;;;;;;;1.77;1.67;;;16.80;76.10;;;;;;948255;148;27340;-75
2023/07/26 02:18:34;;;;;;;2.20;1.57;;;16.80;76.20;;;;;;949392;148;27324;-74
2023/07/26 02:21:01;;;;;;;1.80;1.70;;;16.80;76.40;;;;;;951511;147;27399;-75
2023/07/26 02:23:27;;;;;;;2.10;1.85;;;16.80;76.60;;;;;;932374;149;27376;-75
2023/07/26 02:25:54;;;;;;;2.62;2.27;;;16.80;77.40;;;;;;954543;146;27408;-75
2023/07/26 02:28:20;;;;;;;2.10;1.97;;;16.80;76.90;;;;;;954184;146;27307;-75
2023/07/26 02:30:47;;;;;;;2.23;2.03;;;16.70;77.00;;;;;;948961;146;27354;-75
2023/07/26 02:33:14;;;;;;;1.92;1.82;;;16.70;77.20;;;;;;948969;146;27365;-75
2023/07/26 02:35:40;;;;;;;2.90;1.70;;;16.70;77.40;;;;;;933330;149;27484;-75
2023/07/26 02:38:07;;;;;;;2.00;1.80;;;16.70;77.50;;;;;;932469;149;27500;-75
2023/07/26 02:40:33;;;;;;;1.87;1.77;;;16.70;77.60;;;;;;947263;148;27341;-75
2023/07/26 02:43:00;;;;;;;2.20;2.00;;;16.70;77.70;;;;;;947111;148;27335;-75
2023/07/26 02:45:26;;;;;;;1.93;1.83;;;16.70;77.70;;;;;;946808;148;27372;-75
2023/07/26 02:47:53;;;;;;;2.23;2.03;;;16.70;77.70;;;;;;946514;148;27343;-75
2023/07/26 02:50:20;;;;;;;2.12;1.87;;;16.60;77.70;;;;;;947273;148;27339;-75
2023/07/26 02:52:46;;;;;;;2.77;2.20;;;16.60;77.60;;;;;;947097;148;27325;-73
2023/07/26 02:55:13;;;;;;;3.47;2.00;;;16.50;77.70;;;;;;954829;146;27414;-72
2023/07/26 02:57:39;;;;;;;4.77;2.17;;;16.50;77.80;;;;;;949294;146;27445;-72
2023/07/26 03:00:06;;;;;;;2.57;2.23;;;16.40;77.80;;;;;;931945;149;27340;-73
2023/07/26 03:02:33;;;;;;;2.00;1.90;;;16.30;77.80;;;;;;934072;149;27382;-73
2023/07/26 03:04:59;;;;;;;2.40;2.20;;;16.20;78.10;;;;;;932525;149;27689;-73
2023/07/26 03:07:26;;;;;;;3.12;1.95;;;16.10;78.20;;;;;;948761;146;27354;-73
2023/07/26 03:09:53;;;;;;;3.17;2.30;;;16.10;78.40;;;;;;933097;149;27756;-73
2023/07/26 03:12:19;;;;;;;3.63;2.00;;;16.00;78.70;;;;;;948268;146;27410;-73
2023/07/26 03:14:46;;;;;;;3.27;2.23;;;15.80;78.90;;;;;;932984;149;27394;-73
2023/07/26 03:17:12;;;;;;;2.20;2.10;;;15.80;79.30;;;;;;949731;146;27713;-72
2023/07/26 03:19:39;;;;;;;2.93;2.23;;;15.70;79.60;;;;;;954454;146;27338;-73
2023/07/26 03:22:05;;;;;;;3.40;1.80;;;15.60;80.00;;;;;;946890;148;27396;-72
2023/07/26 03:24:32;;;;;;;4.33;2.30;;;15.50;80.30;;;;;;954306;146;27279;-72
2023/07/26 03:26:59;;;;;;;2.30;2.10;;;15.40;80.80;;;;;;949248;146;27440;-73
2023/07/26 03:29:25;;;;;;;2.47;2.27;;;15.30;81.10;;;;;;931832;149;27369;-73
2023/07/26 03:31:52;;;;;;;2.40;2.20;;;15.20;81.40;;;;;;932403;149;27474;-73
2023/07/26 03:34:18;;;;;;;3.03;2.73;;;15.20;81.90;;;;;;932312;149;27377;-73
2023/07/26 03:36:45;;;;;;;2.87;2.20;;;15.10;82.20;;;;;;954461;146;27411;-73
2023/07/26 03:39:12;;;;;;;2.07;1.97;;;15.00;82.60;;;;;;954567;146;27335;-73
2023/07/26 03:41:38;;;;;;;3.10;2.23;;;15.00;83.30;;;;;;946627;148;27548;-73
2023/07/26 03:44:05;;;;;;;2.30;2.10;;;14.90;83.90;;;;;;954282;146;27307;-73
2023/07/26 03:46:31;;;;;;;7.13;2.50;;;14.90;84.60;;;;;;925066;149;27323;-73
2023/07/26 03:48:58;;;;;;;2.63;2.43;;;14.90;85.40;;;;;;928511;149;27309;-73
2023/07/26 03:51:25;;;;;;;2.73;2.27;;;14.90;86.00;;;;;;926331;149;27506;-73
2023/07/26 03:53:51;;;;;;;2.77;2.30;;;14.80;86.50;;;;;;926492;149;27480;-73
2023/07/26 03:56:18;;;;;;;3.13;2.23;;;14.90;87.10;;;;;;937884;149;27339;-73
2023/07/26 03:58:44;;;;;;;3.47;2.60;;;14.80;87.30;;;;;;933839;149;27357;-73
2023/07/26 04:01:11;;;;;;;1.90;1.77;;;14.90;87.80;;;;;;934310;149;27412;-73
2023/07/26 04:03:37;;;;;;;6.03;2.23;;;14.90;88.10;;;;;;948901;146;27331;-73
2023/07/26 04:06:04;;;;;;;5.07;2.10;;;14.90;88.50;;;;;;931983;149;27402;-73
2023/07/26 04:08:31;;;;;;;5.00;2.60;;;14.90;89.00;;;;;;932898;150;27431;-73
2023/07/26 04:10:57;;;;;;;4.43;2.47;;;15.00;89.50;;;;;;932262;150;27370;-72
2023/07/26 04:13:24;;;;;;;2.47;2.27;;;15.00;89.80;;;;;;947947;147;27356;-73
2023/07/26 04:15:50;;;;;;;2.20;2.00;;;15.00;90.10;;;;;;948752;147;27351;-72
2023/07/26 04:18:17;;;;;;;2.80;2.60;;;15.10;90.20;;;;;;948932;147;27934;-73
2023/07/26 04:20:44;;;;;;;2.27;2.03;;;15.10;90.40;;;;;;948655;147;27448;-73
2023/07/26 04:23:10;;;;;;;2.57;2.03;;;15.20;90.50;;;;;;942751;148;27385;-73
2023/07/26 04:25:37;;;;;;;3.73;2.33;;;15.30;90.60;;;;;;942645;148;27460;-73
2023/07/26 04:28:03;;;;;;;2.47;2.12;;;15.30;90.60;;;;;;942326;148;27333;-73
2023/07/26 04:30:30;;;;;;;3.27;2.20;;;15.40;90.70;;;;;;942722;148;27354;-73
2023/07/26 04:32:57;;;;;;;3.25;2.10;;;15.50;90.80;;;;;;942886;148;27342;-73
2023/07/26 04:35:23;;;;;;;2.87;1.97;;;15.50;90.60;;;;;;942198;148;27485;-73
2023/07/26 04:37:50;;;;;;;2.43;1.80;;;15.60;90.60;;;;;;942269;149;27324;-73
2023/07/26 04:40:16;;;;;;;2.40;2.20;;;15.70;90.50;;;;;;942478;148;27419;-73
2023/07/26 04:42:43;;;;;;;2.90;2.10;;;15.70;90.40;;;;;;942758;148;27693;-73
2023/07/26 04:45:09;;;;;;;2.60;1.80;;;15.80;90.30;;;;;;942032;148;27720;-73
2023/07/26 04:47:36;;;;;;;2.60;1.70;;;15.90;90.80;;;;;;942259;148;27369;-73
2023/07/26 04:50:03;;;;;;;2.47;1.95;;;15.90;90.30;;;;;;942853;148;27326;-73
2023/07/26 04:52:29;;;;;;;3.85;2.12;;;16.00;90.20;;;;;;942621;148;27677;-73
2023/07/26 04:54:57;;;;;;;2.15;1.90;;;16.00;90.00;;;;;;942615;148;27337;-73
2023/07/26 04:57:22;;;;;;;3.13;1.90;;;16.10;89.90;;;;;;942824;148;27450;-73
2023/07/26 04:59:49;;;;;;;2.30;1.80;;;16.10;89.70;;;;;;942349;148;27369;-73
2023/07/26 05:02:16;;;;;;;2.30;1.75;;;16.20;89.60;;;;;;942588;148;27403;-73
2023/07/26 05:04:42;;;;;;;1.92;1.77;;;16.20;89.40;;;;;;942622;148;27353;-73
2023/07/26 05:07:09;;;;;;;3.73;2.03;;;16.30;89.20;;;;;;942508;148;27348;-73
2023/07/26 05:09:35;;;;;;;1.95;1.85;;;16.30;88.90;;;;;;942661;148;27375;-73
2023/07/26 05:12:02;;;;;;;3.70;1.85;;;16.40;88.70;;;;;;942891;149;27332;-73
2023/07/26 05:14:29;;;;;;;1.60;1.50;;;16.50;88.80;;;;;;942788;148;27306;-73
2023/07/26 05:16:55;;;;;;;2.75;2.20;;;16.50;88.60;;;;;;942460;148;27357;-73
2023/07/26 05:19:22;;;;;;;2.05;1.80;;;16.50;88.50;;;;;;942781;148;27447;-73
2023/07/26 05:21:48;;;;;;;2.83;2.05;;;16.60;88.40;;;;;;941878;148;27485;-73
2023/07/26 05:24:15;;;;;;;1.92;1.80;;;16.60;88.00;;;;;;942370;148;27440;-73
2023/07/26 05:26:41;;;;;;;2.95;1.35;;;16.70;87.80;;;;;;942093;148;27341;-73
2023/07/26 05:29:08;;;;;;;2.00;1.90;;;16.70;88.00;;;;;;942316;149;27364;-73
2023/07/26 05:31:35;;;;;;;2.65;2.00;;;16.80;87.90;;;;;;942272;148;27477;-73
2023/07/26 05:34:01;;;;;;;2.35;1.75;;;16.80;87.80;;;;;;943199;148;27476;-73
2023/07/26 05:36:28;;;;;;;1.85;1.67;;;16.80;87.70;;;;;;942395;148;27345;-73
2023/07/26 05:38:54;;;;;;;1.50;1.45;;;16.90;87.80;;;;;;942523;148;27345;-73
2023/07/26 05:41:21;;;;;;;3.37;1.98;;;16.90;87.80;;;;;;943511;148;27437;-73
2023/07/26 05:43:48;;;;;;;1.80;1.70;;;16.90;87.60;;;;;;942219;148;27861;-73
2023/07/26 05:46:14;;;;;;;2.08;1.92;;;17.00;87.70;;;;;;942919;148;27437;-73
2023/07/26 05:48:41;;;;;;;3.90;1.85;;;17.00;87.70;;;;;;949945;147;27324;-73
2023/07/26 05:51:07;;;;;;;1.90;1.80;;;17.00;87.50;;;;;;950624;147;27447;-73
2023/07/26 05:53:34;;;;;;;2.10;1.62;;;17.00;87.30;;;;;;948778;146;27357;-73
2023/07/26 05:56:01;;;;;;;2.55;1.60;;;17.10;87.40;;;;;;941625;149;27345;-73
2023/07/26 05:58:27;;;;;;;1.60;1.50;;;17.10;87.40;;;;;;942317;149;28031;-73
2023/07/26 06:00:54;;;;;;;4.28;1.98;;;17.10;87.30;;;;;;941466;149;27361;-73
2023/07/26 06:03:20;;;;;;;2.72;1.67;;;17.20;87.10;;;;;;942694;149;27384;-73
2023/07/26 06:05:47;;;;;;;2.35;1.80;;;17.20;86.90;;;;;;942116;149;27400;-73
2023/07/26 06:08:14;;;;;;;2.05;1.85;;;17.30;86.80;;;;;;942410;149;27780;-73
2023/07/26 06:10:40;;;;;;;1.87;1.55;;;17.30;86.60;;;;;;942120;149;27350;-73
2023/07/26 06:13:12;;;;;;;1.82;1.70;;;17.40;86.90;;;;;;942071;149;28086;-73
2023/07/26 06:15:33;;;;;;;3.58;1.60;;;17.40;86.90;;;;;;932643;150;27439;-73
2023/07/26 06:18:00;;;;;;;1.87;1.60;;;17.50;86.70;;;;;;949123;147;27343;-73
2023/07/26 06:20:26;;;;;;;2.15;1.95;;;17.60;86.60;;;;;;950454;147;27320;-73
2023/07/26 06:22:53;;;;;;;2.55;1.75;;;17.60;86.20;;;;;;949465;146;27452;-73
2023/07/26 06:25:20;;;;;;;3.70;1.60;;;17.60;85.90;;;;;;949095;146;27338;-74
2023/07/26 06:27:46;;;;;;;1.65;1.50;;;17.70;85.80;;;;;;949156;146;27424;-74
2023/07/26 06:30:15;;;;;;;2.20;2.00;;;17.70;85.40;;;;;;948961;146;27335;-74
2023/07/26 06:32:39;;;;;;;2.52;1.60;;;17.80;85.30;;;;;;948738;146;27297;-73
2023/07/26 06:35:06;;;;;;;1.55;1.45;;;17.80;85.20;;;;;;948870;146;27395;-73
2023/07/26 06:37:33;;;;;;;1.67;1.57;;;17.90;85.10;;;;;;948590;146;27456;-73
2023/07/26 06:39:59;;;;;;;2.47;1.72;;;17.90;85.10;;;;;;949178;146;27311;-74
2023/07/26 06:42:26;;;;;;;2.60;1.57;;;18.00;85.00;;;;;;949335;146;27338;-74
2023/07/26 06:44:52;;;;;;;1.82;1.50;;;18.00;84.40;;;;;;949308;146;27431;-74
2023/07/26 06:47:19;;;;;;;4.45;1.75;;;18.00;84.00;;;;;;932187;149;27775;-74
2023/07/26 06:49:46;;;;;;;1.92;1.82;;;18.10;83.70;;;;;;932641;149;27410;-73
2023/07/26 06:52:12;;;;;;;3.30;1.70;;;18.10;84.20;;;;;;946655;148;27305;-74
2023/07/26 06:54:39;;;;;;;2.33;1.92;;;18.20;83.40;;;;;;948960;147;27328;-73
2023/07/26 06:57:05;;;;;;;2.02;1.52;;;18.20;83.90;;;;;;948770;147;27489;-74
2023/07/26 06:59:32;;;;;;;3.33;2.00;;;18.20;84.00;;;;;;949154;147;27345;-74
2023/07/26 07:01:58;;;;;;;2.92;2.00;;;18.20;84.60;;;;;;949223;147;27486;-74
2023/07/26 07:04:25;;;;;;;3.22;1.52;;;18.20;85.10;;;;;;949267;147;27433;-74
2023/07/26 07:06:52;;;;;;;2.15;1.98;;;18.30;85.20;;;;;;949550;147;27459;-74
2023/07/26 07:09:18;;;;;;;3.60;1.77;;;18.30;85.10;;;;;;948745;147;27460;-74
2023/07/26 07:11:45;;;;;;;2.52;1.85;;;18.30;84.80;;;;;;948508;147;27929;-74
2023/07/26 07:14:11;;;;;;;1.92;1.80;;;18.30;84.60;;;;;;949177;147;27331;-74
2023/07/26 07:16:38;;;;;;;2.55;2.25;;;18.20;84.20;;;;;;948819;147;27345;-74
2023/07/26 07:19:05;;;;;;;2.35;1.80;;;18.20;83.90;;;;;;947691;147;27360;-74
2023/07/26 07:21:31;;;;;;;3.98;2.10;;;18.10;83.80;;;;;;949571;147;27360;-74
2023/07/26 07:23:58;;;;;;;2.70;2.10;;;18.00;84.00;;;;;;946602;147;27420;-74
2023/07/26 07:26:24;;;;;;;2.50;2.10;;;17.90;84.20;;;;;;948760;147;27324;-74
2023/07/26 07:28:51;;;;;;;2.92;2.02;;;17.80;84.60;;;;;;949479;147;27414;-74
2023/07/26 07:31:18;;;;;;;3.67;2.25;;;17.80;85.30;;;;;;949775;147;27729;-74
2023/07/26 07:33:44;;;;;;;3.65;2.08;;;17.70;86.20;;;;;;949022;147;27738;-74
2023/07/26 07:36:15;;;;;;;3.08;2.55;;;17.60;87.60;;;;;;950356;147;27313;-74
2023/07/26 07:38:37;;;;;;;2.27;2.00;;;17.60;88.60;;;;;;949522;147;27414;-74
2023/07/26 07:41:04;;;;;;;2.20;2.00;;;17.60;89.50;;;;;;948796;146;27478;-74
2023/07/26 07:43:30;;;;;;;3.47;2.10;;;17.60;90.00;;;;;;932880;150;27323;-74
2023/07/26 07:45:57;;;;;;;2.83;2.10;;;17.60;90.60;;;;;;949522;147;27413;-74
2023/07/26 07:48:26;;;;;;;2.90;2.20;;;17.70;91.20;;;;;;927060;150;27320;-73
2023/07/26 07:50:56;;;;;;;2.47;2.20;;;17.70;91.50;;;;;;950328;147;27432;-73
2023/07/26 07:53:22;;;;;;;2.37;2.17;;;17.80;92.00;;;;;;950395;147;27328;-74
2023/07/26 07:55:49;;;;;;;2.77;2.15;;;18.00;92.90;;;;;;948573;147;27409;-74
2023/07/26 07:58:16;;;;;;;2.58;2.35;;;18.10;92.90;;;;;;931975;149;27345;-74
2023/07/26 08:00:42;;;;;;;4.05;2.40;;;18.30;92.90;;;;;;941341;148;27353;-74
2023/07/26 08:03:09;;;;;;;2.25;2.05;;;18.50;92.30;;;;;;941549;148;27446;-74
2023/07/26 08:05:35;;;;;;;2.52;2.10;;;18.60;92.00;;;;;;941632;149;27342;-74
2023/07/26 08:08:02;;;;;;;1.90;1.80;;;18.80;90.70;;;;;;950190;147;27336;-74
2023/07/26 08:10:29;;;;;;;3.35;1.98;;;18.80;90.10;;;;;;949483;147;27336;-74
2023/07/26 08:12:55;;;;;;;1.80;1.70;;;18.90;89.70;;;;;;949904;147;27410;-74
2023/07/26 08:15:22;;;;;;;3.75;2.00;;;19.00;89.20;;;;;;948616;146;27327;-74
2023/07/26 08:17:48;;;;;;;1.70;1.60;;;19.00;89.80;;;;;;932188;150;27378;-74
2023/07/26 08:20:15;;;;;;;2.50;1.67;;;19.10;89.70;;;;;;949870;147;27344;-74
2023/07/26 08:22:42;;;;;;;1.60;1.50;;;19.20;90.00;;;;;;949112;146;27452;-74
2023/07/26 08:25:08;;;;;;;1.87;1.77;;;19.30;90.40;;;;;;931808;150;27387;-74
2023/07/26 08:27:35;;;;;;;1.95;1.50;;;19.50;91.40;;;;;;949614;147;27313;-74
2023/07/26 08:30:01;;;;;;;1.60;1.50;;;19.70;91.10;;;;;;949896;147;27322;-74
2023/07/26 08:32:28;;;;;;;1.80;1.70;;;19.90;89.90;;;;;;949634;147;27413;-71
2023/07/26 08:34:55;;;;;;;2.02;1.65;;;20.10;90.50;;;;;;931900;150;27357;-71
2023/07/26 08:37:21;;;;;;;1.80;1.70;;;20.40;90.50;;;;;;932883;150;27696;-71
2023/07/26 08:39:48;;;;;;;1.60;1.37;;;20.60;90.50;;;;;;949542;147;27356;-71
2023/07/26 08:42:14;;;;;;;1.72;1.62;;;20.90;89.80;;;;;;949064;147;27340;-71
2023/07/26 08:44:41;;;;;;;1.75;1.65;;;21.20;89.20;;;;;;933128;150;27360;-71
2023/07/26 08:47:07;;;;;;;1.95;1.22;;;21.50;88.90;;;;;;937742;149;27377;-71
2023/07/26 08:49:34;;;;;;;2.17;1.80;;;22.00;90.80;;;;;;948956;147;27394;-71
2023/07/26 08:52:01;;;;;;;2.05;1.67;;;22.50;89.70;;;;;;926187;150;27312;-72
2023/07/26 08:54:27;;;;;;;2.35;1.57;;;23.20;90.60;;;;;;947808;147;27630;-71
2023/07/26 08:56:54;;;;;;;1.72;1.40;;;23.90;91.10;;;;;;947467;147;27386;-71
2023/07/26 08:59:20;;;;;;;2.83;1.35;;;24.80;90.40;;;;;;949561;147;27320;-72
2023/07/26 09:01:47;;;;;;;1.77;1.30;;;25.70;85.20;;;;;;949110;147;27322;-71
2023/07/26 09:04:14;;;;;;;1.37;1.27;;;26.60;80.90;;;;;;949040;147;27357;-71
2023/07/26 09:06:40;;;;;;;2.08;1.30;;;27.40;78.40;;;;;;931956;149;27456;-71
2023/07/26 09:09:07;;;;;;;1.82;1.20;;;28.40;77.20;;;;;;925958;150;27386;-71
2023/07/26 09:11:33;;;;;;;2.58;1.40;;;29.20;74.60;;;;;;949862;147;27301;-72
2023/07/26 09:14:00;;;;;;;1.40;1.30;;;30.10;70.10;;;;;;949793;147;27836;-72
2023/07/26 09:16:27;;;;;;;2.05;1.40;;;30.60;66.00;;;;;;932168;149;27452;-72
2023/07/26 09:18:59;;;;;;;1.45;1.32;;;30.90;62.20;;;;;;949475;147;27318;-72
2023/07/26 09:21:28;;;;;;;2.40;1.40;;;31.00;59.80;;;;;;948779;147;27294;-72
2023/07/26 09:23:54;;;;;;;1.85;1.55;;;30.90;58.40;;;;;;949745;147;27376;-71
2023/07/26 09:26:34;;;;;;;1.17;1.10;;;30.60;57.10;;;;;;932839;150;27471;-71
2023/07/26 09:29:00;;;;;;;2.20;1.50;;;30.30;56.80;;;;;;947844;147;27813;-71
2023/07/26 09:31:29;;;;;;;2.15;1.40;;;29.90;56.80;;;;;;950284;147;27409;-71
2023/07/26 09:33:55;;;;;;;1.25;1.15;;;29.50;56.60;;;;;;926441;150;27421;-71
2023/07/26 09:36:22;;;;;;;1.60;1.40;;;29.10;56.90;;;;;;927145;150;27434;-71
2023/07/26 09:38:49;;;;;;;1.20;1.07;;;28.70;57.20;;;;;;942438;149;27763;-71
2023/07/26 09:41:22;;;;;;;2.50;1.60;;;28.50;57.60;;;;;;941298;149;27341;-71
2023/07/26 09:43:48;;;;;;;1.65;1.30;;;28.40;58.10;;;;;;948714;147;27369;-71
2023/07/26 09:46:15;;;;;;;1.30;1.20;;;28.40;59.10;;;;;;933669;149;26260;-71
2023/07/26 09:48:57;;;;;;;1.50;1.37;;;28.50;59.40;;;;;;933210;150;27347;-71
2023/07/26 09:51:24;;;;;;;2.02;1.32;;;28.80;59.60;;;;;;932086;150;27343;-71
2023/07/26 09:53:49;;;;;;;1.47;1.37;;;29.20;59.30;;;;;;950104;147;27349;-71
2023/07/26 09:56:15;;;;;;;1.52;1.10;;;29.60;58.50;;;;;;949807;147;27377;-71
2023/07/26 09:58:42;;;;;;;1.67;1.30;;;29.90;57.60;;;;;;925826;150;27454;-71
2023/07/26 10:01:09;;;;;;;1.35;1.22;;;30.30;57.10;;;;;;948354;146;27323;-71
2023/07/26 10:03:35;;;;;;;2.52;1.37;;;30.60;56.80;;;;;;942570;148;27321;-71
2023/07/26 10:06:02;;;;;;;1.22;1.12;;;30.90;56.80;;;;;;950404;147;27788;-71
2023/07/26 10:08:28;;;;;;;1.80;1.20;;;31.20;55.60;;;;;;932890;150;27376;-71
2023/07/26 10:10:55;;;;;;;2.33;1.35;;;31.30;54.10;;;;;;926478;150;27351;-71
2023/07/26 10:13:22;;;;;;;1.87;1.35;;;31.40;53.60;;;;;;949836;147;27313;-71
2023/07/26 10:15:48;;;;;;;1.25;1.20;;;31.40;52.90;;;;;;949998;147;27414;-71
2023/07/26 10:18:15;;;;;;;1.65;1.50;;;31.30;52.60;;;;;;950180;147;27346;-71
2023/07/26 10:20:42;;;;;;;2.77;1.45;;;31.10;52.20;;;;;;933292;149;27331;-71
2023/07/26 10:23:08;;;;;;;1.80;1.32;;;31.00;52.40;;;;;;932777;150;27360;-71
2023/07/26 10:25:35;;;;;;;1.52;1.20;;;31.00;52.10;;;;;;953218;146;27362;-71
2023/07/26 10:28:01;;;;;;;1.15;1.15;;;30.90;51.80;;;;;;945709;148;27377;-71
2023/07/26 10:30:28;;;;;;;4.03;1.10;;;30.80;51.60;;;;;;952256;147;27332;-71
2023/07/26 10:32:54;;;;;;;1.87;1.10;;;30.70;51.60;;;;;;947523;148;27413;-71
2023/07/26 10:35:30;;;;;;;1.20;1.00;;;30.70;51.50;;;;;;962676;146;27430;-75
2023/07/26 10:37:58;;;;;;;1.30;1.20;;;30.60;51.20;;;;;;961166;146;27432;-76
2023/07/26 10:40:32;;;;;;;1.30;1.20;;;30.40;51.00;;;;;;944960;148;27408;-76
2023/07/26 10:42:58;;;;;;;1.40;1.07;;;30.20;50.90;;;;;;940914;149;27433;-76
2023/07/26 10:45:37;;;;;;;1.40;1.30;;;30.10;51.00;;;;;;961523;148;27389;-76
2023/07/26 10:48:04;;;;;;;1.10;1.10;;;29.80;51.10;;;;;;961760;148;27353;-75
2023/07/26 10:50:30;;;;;;;3.42;1.57;;;29.60;50.50;;;;;;961702;148;27336;-76
2023/07/26 10:52:57;;;;;;;3.47;1.57;;;29.40;50.30;;;;;;944872;148;27345;-76
2023/07/26 10:55:23;;;;;;;1.75;1.30;;;29.20;50.30;;;;;;963316;145;27389;-75
2023/07/26 10:57:50;;;;;;;1.70;1.27;;;29.10;49.90;;;;;;963005;146;27335;-75
2023/07/26 11:00:22;;;;;;;2.02;1.25;;;28.80;50.10;;;;;;963054;146;27408;-75
2023/07/26 11:02:46;;;;;;;1.40;1.30;;;28.60;50.60;;;;;;961820;146;27315;-75
2023/07/26 11:05:15;;;;;;;1.20;1.15;;;28.50;51.20;;;;;;942371;149;27758;-75
2023/07/26 11:08:03;;;;;;;1.60;1.50;;;28.50;51.10;;;;;;962584;146;27425;-75
2023/07/26 11:10:35;;;;;;;1.70;1.60;;;28.40;51.00;;;;;;962270;146;27330;-75
2023/07/26 11:13:07;;;;;;;2.05;1.60;;;28.40;51.00;;;;;;946378;148;27345;-76
2023/07/26 11:15:34;;;;;;;2.30;1.98;;;28.30;50.90;;;;;;962512;146;27351;-76
2023/07/26 11:18:00;;;;;;;2.20;2.00;;;28.30;50.90;;;;;;962984;146;27439;-75
2023/07/26 11:20:27;;;;;;;3.70;2.50;;;28.30;51.10;;;;;;962813;146;27331;-75
2023/07/26 11:22:53;;;;;;;2.95;2.72;;;28.40;51.20;;;;;;962654;146;27379;-75
2023/07/26 11:25:20;;;;;;;2.17;1.98;;;28.40;51.20;;;;;;965806;145;27403;-76
2023/07/26 11:27:50;;;;;;;2.20;1.72;;;28.50;51.00;;;;;;933519;149;27489;-76
2023/07/26 11:30:19;;;;;;;1.67;1.57;;;28.50;50.70;;;;;;949935;147;27333;-75
2023/07/26 11:32:45;;;;;;;7.15;1.47;;;28.50;50.30;;;;;;949059;147;27334;-76
2023/07/26 11:35:12;;;;;;;2.58;2.30;;;28.50;49.70;;;;;;926651;150;27312;-76
2023/07/26 11:37:39;;;;;;;2.05;1.70;;;28.40;49.70;;;;;;941567;149;27362;-75
2023/07/26 11:40:06;;;;;;;2.33;1.62;;;28.30;49.80;;;;;;942465;149;27361;-75
2023/07/26 11:42:33;;;;;;;1.92;1.70;;;28.20;50.20;;;;;;947373;147;27293;-76
2023/07/26 11:44:58;;;;;;;1.72;1.60;;;28.10;50.40;;;;;;948727;146;27311;-75
2023/07/26 11:47:25;;;;;;;1.55;1.45;;;28.00;50.30;;;;;;932824;150;27375;-76
2023/07/26 11:49:52;;;;;;;1.50;1.40;;;28.00;50.10;;;;;;933404;149;27449;-75
2023/07/26 11:52:18;;;;;;;1.47;1.30;;;28.00;50.30;;;;;;933198;149;27373;-76
2023/07/26 11:54:57;;;;;;;1.55;1.45;;;27.90;50.30;;;;;;948917;147;27281;-75
2023/07/26 11:57:23;;;;;;;1.47;1.37;;;27.90;50.30;;;;;;949991;147;27449;-75
2023/07/26 11:59:50;;;;;;;2.62;1.67;;;27.80;50.20;;;;;;933196;150;27457;-76
2023/07/26 12:02:16;;;;;;;1.62;1.50;;;27.70;50.10;;;;;;948751;147;27309;-75
2023/07/26 12:04:43;;;;;;;1.40;1.30;;;27.60;50.10;;;;;;948980;147;27389;-75
2023/07/26 12:07:09;;;;;;;1.98;1.72;;;27.50;50.80;;;;;;929408;150;27340;-75
2023/07/26 12:09:46;;;;;;;3.37;1.42;;;27.40;51.00;;;;;;950137;147;27353;-76
2023/07/26 12:12:12;;;;;;;1.50;1.35;;;27.30;51.10;;;;;;926091;150;27389;-76
2023/07/26 12:14:38;;;;;;;1.60;1.47;;;27.20;51.10;;;;;;926941;150;27447;-75
2023/07/26 12:17:05;;;;;;;2.50;1.75;;;27.10;51.00;;;;;;942879;148;27378;-75
2023/07/26 12:19:32;;;;;;;2.02;1.35;;;27.10;51.00;;;;;;949260;147;27718;-75
2023/07/26 12:21:58;;;;;;;1.65;1.55;;;27.00;51.10;;;;;;949413;147;27353;-76
2023/07/26 12:24:27;;;;;;;1.60;1.50;;;27.00;51.00;;;;;;950671;147;27415;-75
2023/07/26 12:26:51;;;;;;;2.08;1.40;;;27.00;51.00;;;;;;949632;147;27354;-75
2023/07/26 12:29:18;;;;;;;2.77;2.00;;;26.90;51.10;;;;;;950648;147;27967;-75
2023/07/26 12:31:45;;;;;;;1.37;1.27;;;26.90;51.40;;;;;;933110;150;27367;-75
2023/07/26 12:34:11;;;;;;;1.40;1.30;;;26.70;51.10;;;;;;950483;147;27377;-76
2023/07/26 12:36:41;;;;;;;1.85;1.30;;;26.40;51.50;;;;;;925540;150;27353;-76
2023/07/26 12:39:07;;;;;;;1.55;1.17;;;26.10;51.60;;;;;;933487;149;27502;-76
2023/07/26 12:41:31;;;;;;;1.55;1.40;;;25.70;52.30;;;;;;925937;150;27347;-75
2023/07/26 12:43:58;;;;;;;1.50;1.40;;;25.30;53.50;;;;;;940729;149;27472;-76
2023/07/26 12:46:24;;;;;;;1.47;1.35;;;25.10;54.20;;;;;;942510;149;27403;-75